createdAt,value
2022-08-25T00:00:12.865Z,81.30
2022-08-25T00:02:40.316Z,81.30
2022-08-25T00:05:08.155Z,81.20
2022-08-25T00:07:37.059Z,81.30
2022-08-25T00:10:06.110Z,82.40
2022-08-25T00:12:33.544Z,81.10
2022-08-25T00:15:00.796Z,80.90
2022-08-25T00:17:28.082Z,80.60
2022-08-25T00:19:55.515Z,79.70
2022-08-25T00:22:22.673Z,80.40
2022-08-25T00:24:49.842Z,80.20
2022-08-25T00:27:17.890Z,80.50
2022-08-25T00:29:45.075Z,79.80
2022-08-25T00:32:12.696Z,80.90
2022-08-25T00:34:39.962Z,80.90
2022-08-25T00:37:09.326Z,81.10
2022-08-25T00:39:38.161Z,81.60
2022-08-25T00:42:06.890Z,82.00
2022-08-25T00:44:43.777Z,82.30
2022-08-25T00:47:11.043Z,82.70
2022-08-25T00:49:49.559Z,82.20
2022-08-25T00:52:39.087Z,83.20
2022-08-25T00:55:12.794Z,83.40
2022-08-25T00:58:00.084Z,83.70
2022-08-25T01:00:38.315Z,83.90
2022-08-25T01:03:07.111Z,83.60
2022-08-25T01:05:35.258Z,83.80
2022-08-25T01:08:03.278Z,83.50
2022-08-25T01:10:36.377Z,83.10
2022-08-25T01:13:16.419Z,82.50
2022-08-25T01:15:45.988Z,82.00
2022-08-25T01:18:13.489Z,81.20
2022-08-25T01:20:41.724Z,80.70
2022-08-25T01:23:08.864Z,80.20
2022-08-25T01:26:03.529Z,79.90
2022-08-25T01:28:32.220Z,79.50
2022-08-25T01:30:59.506Z,79.20
2022-08-25T01:33:28.958Z,79.00
2022-08-25T01:35:56.665Z,78.80
2022-08-25T01:38:23.843Z,77.40
2022-08-25T01:40:51.026Z,79.10
2022-08-25T01:43:35.584Z,77.70
2022-08-25T01:46:02.957Z,77.50
2022-08-25T01:48:30.513Z,77.50
2022-08-25T01:50:57.686Z,77.40
2022-08-25T01:53:30.234Z,77.20
2022-08-25T01:56:11.618Z,77.10
2022-08-25T01:58:42.076Z,77.50
2022-08-25T02:01:17.393Z,77.60
2022-08-25T02:03:48.075Z,78.00
2022-08-25T02:06:28.896Z,78.00
2022-08-25T02:09:00.946Z,78.10
2022-08-25T02:11:28.548Z,78.20
2022-08-25T02:13:56.213Z,78.20
2022-08-25T02:16:29.240Z,78.20
2022-08-25T02:18:57.197Z,77.70
2022-08-25T02:21:24.462Z,78.50
2022-08-25T02:23:51.658Z,78.50
2022-08-25T02:26:19.875Z,78.40
2022-08-25T02:28:48.278Z,77.90
2022-08-25T02:31:16.767Z,78.90
2022-08-25T02:33:44.313Z,79.00
2022-08-25T02:36:11.768Z,78.70
2022-08-25T02:38:39.960Z,78.50
2022-08-25T02:41:20.168Z,78.50
2022-08-25T02:43:48.693Z,78.40
2022-08-25T02:46:18.504Z,78.10
2022-08-25T02:48:46.879Z,77.20
2022-08-25T02:51:15.160Z,78.00
2022-08-25T02:53:45.867Z,78.00
2022-08-25T02:56:14.755Z,78.20
2022-08-25T02:58:42.593Z,76.90
2022-08-25T03:01:12.931Z,77.50
2022-08-25T03:03:44.544Z,77.60
2022-08-25T03:06:19.298Z,77.40
2022-08-25T03:08:46.545Z,76.50
2022-08-25T03:11:13.745Z,77.00
2022-08-25T03:13:41.406Z,76.80
2022-08-25T03:16:11.262Z,76.20
2022-08-25T03:18:42.089Z,76.10
2022-08-25T03:21:11.524Z,76.00
2022-08-25T03:23:39.951Z,75.60
2022-08-25T03:26:26.447Z,75.40
2022-08-25T03:28:55.381Z,75.10
2022-08-25T03:31:25.006Z,74.60
2022-08-25T03:33:52.511Z,74.10
2022-08-25T03:36:19.830Z,73.60
2022-08-25T03:38:47.026Z,72.80
2022-08-25T03:41:29.212Z,71.80
2022-08-25T03:43:57.015Z,71.20
2022-08-25T03:46:29.909Z,70.40
2022-08-25T03:48:57.973Z,69.80
2022-08-25T03:51:28.643Z,69.20
2022-08-25T03:53:56.480Z,68.60
2022-08-25T03:56:23.767Z,67.90
2022-08-25T03:58:51.429Z,67.10
2022-08-25T04:01:18.875Z,66.20
2022-08-25T04:03:46.698Z,65.40
2022-08-25T04:06:15.495Z,64.50
2022-08-25T04:08:42.728Z,64.20
2022-08-25T04:11:13.084Z,63.50
2022-08-25T04:13:42.341Z,62.60
2022-08-25T04:16:19.198Z,62.50
2022-08-25T04:18:47.645Z,62.10
2022-08-25T04:21:15.909Z,61.60
2022-08-25T04:23:44.645Z,61.20
2022-08-25T04:26:14.408Z,60.70
2022-08-25T04:28:42.050Z,60.30
2022-08-25T04:31:11.104Z,60.00
2022-08-25T04:33:38.846Z,59.50
2022-08-25T04:36:11.887Z,59.30
2022-08-25T04:38:41.427Z,57.70
2022-08-25T04:41:11.833Z,58.70
2022-08-25T04:43:41.545Z,58.50
2022-08-25T04:46:15.016Z,58.40
2022-08-25T04:48:49.229Z,57.70
2022-08-25T04:51:20.650Z,57.50
2022-08-25T04:53:47.795Z,57.30
2022-08-25T04:56:17.551Z,57.20
2022-08-25T04:58:47.007Z,56.40
2022-08-25T05:01:17.084Z,57.20
2022-08-25T05:03:46.418Z,57.90
2022-08-25T05:06:16.242Z,56.80
2022-08-25T05:08:45.997Z,56.60
2022-08-25T05:11:17.234Z,56.30
2022-08-25T05:13:51.285Z,56.20
2022-08-25T05:16:21.335Z,55.80
2022-08-25T05:18:49.366Z,55.60
2022-08-25T05:21:20.142Z,55.30
2022-08-25T05:23:48.439Z,54.80
2022-08-25T05:26:22.123Z,54.30
2022-08-25T05:28:51.851Z,53.90
2022-08-25T05:31:20.115Z,53.60
2022-08-25T05:33:47.573Z,53.30
2022-08-25T05:36:17.019Z,53.20
2022-08-25T05:38:44.316Z,51.80
2022-08-25T05:41:17.864Z,52.50
2022-08-25T05:43:47.983Z,52.40
2022-08-25T05:46:17.192Z,52.10
2022-08-25T05:48:44.791Z,51.90
2022-08-25T05:51:13.388Z,52.00
2022-08-25T05:53:44.208Z,51.60
2022-08-25T05:56:11.890Z,51.90
2022-08-25T05:58:39.285Z,52.20
2022-08-25T06:01:25.239Z,52.40
2022-08-25T06:03:55.201Z,52.70
2022-08-25T06:06:25.670Z,53.10
2022-08-25T06:08:52.850Z,52.50
2022-08-25T06:11:20.006Z,52.90
2022-08-25T06:13:47.272Z,53.00
2022-08-25T06:16:14.565Z,53.10
2022-08-25T06:18:41.769Z,52.70
2022-08-25T06:21:14.526Z,52.00
2022-08-25T06:23:42.017Z,51.60
2022-08-25T06:26:21.274Z,50.90
2022-08-25T06:28:50.698Z,50.90
2022-08-25T06:31:19.144Z,50.80
2022-08-25T06:33:46.857Z,51.20
2022-08-25T06:36:15.317Z,51.00
2022-08-25T06:38:42.835Z,51.10
2022-08-25T06:41:13.843Z,50.80
2022-08-25T06:43:47.953Z,51.30
2022-08-25T06:46:23.382Z,51.10
2022-08-25T06:49:04.935Z,50.60
2022-08-25T06:51:32.164Z,50.20
2022-08-25T06:54:00.717Z,50.60
2022-08-25T06:56:27.952Z,50.70
2022-08-25T06:58:55.166Z,49.50
2022-08-25T07:01:26.823Z,50.00
2022-08-25T07:03:59.740Z,50.00
2022-08-25T07:06:29.314Z,49.60
2022-08-25T07:08:56.616Z,49.40
2022-08-25T07:11:24.141Z,49.60
2022-08-25T07:13:51.699Z,48.40
2022-08-25T07:16:20.555Z,48.20
2022-08-25T07:18:48.607Z,46.60
2022-08-25T07:21:16.228Z,45.80
2022-08-25T07:23:43.473Z,45.70
2022-08-25T07:29:07.865Z,44.00
2022-08-25T07:31:35.422Z,44.80
2022-08-25T07:34:21.207Z,44.50
2022-08-25T07:36:48.394Z,43.80
2022-08-25T07:39:16.538Z,44.00
2022-08-25T07:41:43.838Z,43.50
2022-08-25T07:44:12.947Z,43.00
2022-08-25T07:46:40.733Z,42.90
2022-08-25T07:49:16.311Z,41.30
2022-08-25T07:52:03.708Z,42.00
2022-08-25T07:54:34.100Z,41.70
2022-08-25T07:57:03.713Z,41.10
2022-08-25T07:59:39.691Z,40.80
2022-08-25T08:02:18.543Z,40.90
2022-08-25T08:04:50.739Z,40.10
2022-08-25T08:07:19.842Z,40.20
2022-08-25T08:09:55.862Z,39.50
2022-08-25T08:12:24.531Z,39.60
2022-08-25T08:14:52.201Z,39.70
2022-08-25T08:17:20.377Z,39.40
2022-08-25T08:19:48.251Z,38.90
2022-08-25T08:22:15.668Z,38.40
2022-08-25T08:24:54.476Z,38.20
2022-08-25T08:27:23.646Z,37.80
2022-08-25T08:29:50.907Z,37.90
2022-08-25T08:32:18.709Z,37.40
2022-08-25T08:34:51.164Z,37.30
2022-08-25T08:37:20.355Z,36.80
2022-08-25T08:39:51.354Z,36.10
2022-08-25T08:42:33.648Z,35.70
2022-08-25T08:45:26.832Z,36.50
2022-08-25T08:48:11.196Z,35.80
2022-08-25T08:51:04.840Z,35.10
2022-08-25T08:53:52.910Z,35.00
2022-08-25T08:56:25.658Z,35.00
2022-08-25T08:59:14.110Z,34.30
2022-08-25T09:01:52.544Z,30.20
2022-08-25T09:04:39.288Z,27.80
2022-08-25T09:07:12.938Z,24.50
2022-08-25T09:09:41.963Z,22.20
2022-08-25T09:12:41.614Z,20.50
2022-08-25T09:15:23.413Z,19.10
2022-08-25T09:18:15.382Z,18.20
2022-08-25T09:21:20.722Z,17.10
2022-08-25T09:24:12.906Z,15.50
2022-08-25T09:26:56.986Z,15.10
2022-08-25T09:29:26.289Z,14.50
2022-08-25T09:31:59.743Z,14.20
2022-08-25T09:34:32.583Z,13.90
2022-08-25T09:37:01.250Z,13.80
2022-08-25T09:39:28.407Z,13.50
2022-08-25T09:41:59.233Z,13.20
2022-08-25T09:44:28.274Z,13.00
2022-08-25T09:47:05.057Z,12.60
2022-08-25T09:49:39.206Z,12.40
2022-08-25T09:52:31.865Z,11.60
2022-08-25T09:55:22.823Z,11.40
2022-08-25T09:57:55.761Z,11.40
2022-08-25T10:00:30.994Z,11.30
2022-08-25T10:03:06.836Z,12.00
2022-08-25T10:06:06.419Z,12.30
2022-08-25T10:08:45.041Z,12.50
2022-08-25T10:11:15.377Z,12.20
2022-08-25T10:13:46.639Z,11.90
2022-08-25T10:16:24.879Z,12.20
2022-08-25T10:19:12.235Z,11.20
2022-08-25T10:21:41.685Z,10.60
2022-08-25T10:24:19.694Z,10.00
2022-08-25T10:26:55.171Z,9.90
2022-08-25T10:29:44.221Z,10.10
2022-08-25T10:32:20.475Z,10.10
2022-08-25T10:34:56.549Z,10.00
2022-08-25T10:37:32.811Z,9.50
2022-08-25T10:40:34.355Z,8.50
2022-08-25T10:43:19.210Z,8.30
2022-08-25T10:46:01.588Z,8.30
2022-08-25T10:48:56.108Z,7.90
2022-08-25T10:51:26.039Z,7.90
2022-08-25T10:54:11.624Z,7.70
2022-08-25T10:56:42.589Z,8.80
2022-08-25T10:59:12.861Z,7.30
2022-08-25T11:02:01.681Z,6.50
2022-08-25T11:04:38.727Z,6.70
2022-08-25T11:07:20.021Z,6.70
2022-08-25T11:09:51.178Z,7.50
2022-08-25T11:12:33.391Z,7.60
2022-08-25T11:15:20.659Z,7.90
2022-08-25T11:17:58.398Z,9.00
2022-08-25T11:20:33.482Z,9.70
2022-08-25T11:23:22.210Z,10.60
2022-08-25T11:25:55.800Z,10.90
2022-08-25T11:28:39.694Z,11.10
2022-08-25T11:31:09.642Z,11.20
2022-08-25T11:33:39.310Z,10.50
2022-08-25T11:36:36.081Z,10.20
2022-08-25T11:39:25.106Z,9.60
2022-08-25T11:42:29.927Z,9.40
2022-08-25T11:45:28.969Z,9.50
2022-08-25T11:48:21.971Z,10.20
2022-08-25T11:50:57.734Z,10.20
2022-08-25T11:53:30.259Z,9.90
2022-08-25T11:56:04.263Z,8.80
2022-08-25T11:58:40.953Z,7.80
2022-08-25T12:01:38.734Z,8.30
2022-08-25T12:04:44.974Z,8.90
2022-08-25T12:07:23.561Z,9.60
2022-08-25T12:09:51.114Z,9.60
2022-08-25T12:12:46.746Z,10.80
2022-08-25T12:15:25.790Z,11.70
2022-08-25T12:18:15.260Z,12.20
2022-08-25T12:20:57.802Z,12.50
2022-08-25T12:23:35.256Z,12.20
2022-08-25T12:26:33.607Z,12.00
2022-08-25T12:29:34.818Z,11.10
2022-08-25T12:32:17.559Z,10.20
2022-08-25T12:35:06.595Z,10.20
2022-08-25T12:37:35.240Z,10.40
2022-08-25T12:40:06.587Z,9.70
2022-08-25T12:42:45.133Z,9.00
2022-08-25T12:45:23.557Z,8.30
2022-08-25T12:47:53.233Z,8.50
2022-08-25T12:50:29.322Z,8.70
2022-08-25T12:53:15.102Z,8.70
2022-08-25T12:55:49.428Z,8.90
2022-08-25T12:58:16.935Z,8.80
2022-08-25T13:01:02.861Z,8.90
2022-08-25T13:04:13.663Z,9.10
2022-08-25T13:07:21.785Z,8.90
2022-08-25T13:10:29.503Z,9.00
2022-08-25T13:13:05.780Z,8.90
2022-08-25T13:15:38.202Z,8.60
2022-08-25T13:18:26.322Z,8.50
2022-08-25T13:21:03.282Z,9.50
2022-08-25T13:23:33.760Z,10.00
2022-08-25T13:26:01.506Z,9.40
2022-08-25T13:28:36.191Z,9.10
2022-08-25T13:31:15.043Z,8.50
2022-08-25T13:33:54.718Z,8.80
2022-08-25T13:36:52.060Z,9.10
2022-08-25T13:39:45.375Z,9.20
2022-08-25T13:42:16.842Z,9.20
2022-08-25T13:44:51.991Z,9.60
2022-08-25T13:47:45.283Z,8.00
2022-08-25T13:50:22.619Z,7.80
2022-08-25T13:52:54.685Z,7.80
2022-08-25T13:55:38.222Z,8.40
2022-08-25T13:58:38.700Z,8.60
2022-08-25T14:01:47.869Z,8.90
2022-08-25T14:04:52.717Z,8.70
2022-08-25T14:07:23.033Z,9.00
2022-08-25T14:09:57.850Z,8.70
2022-08-25T14:12:30.743Z,8.30
2022-08-25T14:15:17.739Z,7.70
2022-08-25T14:18:13.819Z,7.60
2022-08-25T14:20:48.206Z,7.70
2022-08-25T14:23:26.986Z,8.40
2022-08-25T14:25:57.645Z,9.20
2022-08-25T14:28:28.909Z,9.60
2022-08-25T14:31:05.304Z,9.90
2022-08-25T14:33:53.829Z,10.00
2022-08-25T14:36:21.291Z,9.80
2022-08-25T14:38:54.552Z,10.00
2022-08-25T14:41:24.015Z,10.10
2022-08-25T14:43:51.534Z,10.30
2022-08-25T14:46:27.586Z,10.00
2022-08-25T14:48:59.406Z,9.50
2022-08-25T14:51:29.689Z,9.00
2022-08-25T14:54:00.498Z,8.70
2022-08-25T14:56:27.757Z,9.00
2022-08-25T14:58:57.200Z,9.50
2022-08-25T15:01:30.130Z,10.20
2022-08-25T15:04:03.331Z,10.40
2022-08-25T15:06:31.062Z,10.50
2022-08-25T15:09:13.667Z,10.70
2022-08-25T15:11:45.508Z,11.00
2022-08-25T15:14:18.266Z,11.20
2022-08-25T15:16:52.098Z,12.20
2022-08-25T15:19:21.582Z,12.70
2022-08-25T15:21:51.450Z,12.20
2022-08-25T15:24:20.282Z,12.60
2022-08-25T15:29:23.286Z,12.70
2022-08-25T15:31:50.967Z,12.80
2022-08-25T15:34:18.269Z,14.10
2022-08-25T15:36:46.657Z,14.30
2022-08-25T15:39:14.755Z,14.10
2022-08-25T15:41:48.181Z,14.30
2022-08-25T15:44:17.277Z,14.60
2022-08-25T15:46:46.914Z,14.50
2022-08-25T15:49:20.474Z,15.10
2022-08-25T15:51:54.928Z,15.30
2022-08-25T15:54:23.414Z,16.10
2022-08-25T15:56:52.660Z,17.40
2022-08-25T15:59:21.829Z,18.20
2022-08-25T16:01:54.076Z,18.10
2022-08-25T16:04:24.066Z,18.60
2022-08-25T16:06:52.173Z,19.80
2022-08-25T16:09:22.976Z,20.50
2022-08-25T16:11:56.517Z,21.60
2022-08-25T16:14:27.597Z,22.80
2022-08-25T16:16:58.418Z,23.80
2022-08-25T16:19:29.682Z,23.80
2022-08-25T16:21:58.132Z,24.30
2022-08-25T16:24:25.518Z,24.10
2022-08-25T16:26:55.970Z,24.70
2022-08-25T16:29:23.999Z,25.70
2022-08-25T16:31:54.834Z,26.90
2022-08-25T16:34:24.703Z,28.50
2022-08-25T16:36:55.604Z,28.20
2022-08-25T16:39:23.933Z,28.00
2022-08-25T16:41:52.146Z,29.10
2022-08-25T16:44:22.597Z,29.50
2022-08-25T16:46:54.198Z,30.50
2022-08-25T16:49:24.540Z,31.30
2022-08-25T16:51:57.145Z,32.40
2022-08-25T16:54:45.007Z,32.60
2022-08-25T16:57:13.373Z,32.50
2022-08-25T16:59:42.404Z,31.40
2022-08-25T17:02:11.116Z,32.40
2022-08-25T17:04:38.337Z,32.20
2022-08-25T17:07:05.689Z,32.90
2022-08-25T17:09:35.143Z,33.20
2022-08-25T17:12:02.587Z,33.80
2022-08-25T17:14:29.775Z,34.40
2022-08-25T17:16:58.037Z,35.00
2022-08-25T17:22:07.721Z,35.80
2022-08-25T17:24:36.477Z,37.50
2022-08-25T17:27:07.651Z,39.00
2022-08-25T17:29:35.249Z,39.40
2022-08-25T17:32:03.687Z,39.00
2022-08-25T17:34:31.630Z,38.30
2022-08-25T17:36:59.243Z,39.30
2022-08-25T17:39:27.044Z,40.50
2022-08-25T17:41:54.656Z,41.60
2022-08-25T17:44:21.904Z,43.50
2022-08-25T17:46:49.853Z,44.90
2022-08-25T17:49:19.468Z,45.50
2022-08-25T17:51:46.768Z,46.20
2022-08-25T17:54:16.625Z,47.30
2022-08-25T17:56:43.963Z,48.70
2022-08-25T17:59:12.028Z,49.50
2022-08-25T18:01:40.303Z,48.40
2022-08-25T18:04:14.272Z,49.30
2022-08-25T18:06:46.686Z,49.80
2022-08-25T18:09:15.101Z,50.90
2022-08-25T18:11:42.563Z,52.30
2022-08-25T18:14:11.369Z,53.20
2022-08-25T18:16:38.826Z,54.20
2022-08-25T18:19:06.568Z,55.40
2022-08-25T18:21:36.962Z,56.40
2022-08-25T18:24:05.407Z,57.20
2022-08-25T18:26:35.564Z,57.70
2022-08-25T18:29:02.942Z,58.70
2022-08-25T18:31:30.270Z,59.30
2022-08-25T18:33:57.870Z,59.80
2022-08-25T18:36:25.049Z,60.70
2022-08-25T18:39:11.403Z,61.30
2022-08-25T18:41:42.561Z,62.00
2022-08-25T18:44:10.820Z,63.80
2022-08-25T18:46:39.759Z,63.40
2022-08-25T18:49:07.490Z,64.00
2022-08-25T18:51:36.217Z,64.90
2022-08-25T18:54:03.936Z,65.90
2022-08-25T18:56:31.340Z,67.40
2022-08-25T18:58:58.533Z,68.40
2022-08-25T19:01:25.823Z,69.30
2022-08-25T19:03:53.131Z,70.00
2022-08-25T19:06:20.863Z,70.30
2022-08-25T19:08:48.700Z,71.10
2022-08-25T19:11:17.263Z,71.70
2022-08-25T19:13:50.159Z,71.90
2022-08-25T19:16:40.034Z,72.20
2022-08-25T19:19:11.489Z,72.70
2022-08-25T19:21:39.970Z,73.20
2022-08-25T19:24:08.789Z,73.40
2022-08-25T19:26:36.880Z,73.40
2022-08-25T19:29:10.753Z,73.30
2022-08-25T19:31:39.745Z,72.90
2022-08-25T19:34:09.215Z,72.60
2022-08-25T19:36:37.653Z,73.00
2022-08-25T19:39:08.126Z,72.80
2022-08-25T19:41:36.327Z,73.80
2022-08-25T19:44:03.673Z,74.00
2022-08-25T19:46:36.122Z,74.50
2022-08-25T19:49:08.272Z,74.10
2022-08-25T19:51:44.206Z,75.10
2022-08-25T19:54:16.708Z,75.70
2022-08-25T19:56:54.480Z,75.60
2022-08-25T19:59:25.018Z,75.70
2022-08-25T20:01:52.606Z,75.60
2022-08-25T20:04:20.110Z,75.60
2022-08-25T20:06:48.158Z,75.90
2022-08-25T20:09:35.773Z,75.90
2022-08-25T20:12:04.989Z,75.80
2022-08-25T20:14:33.866Z,76.00
2022-08-25T20:17:02.769Z,76.20
2022-08-25T20:19:31.081Z,75.40
2022-08-25T20:21:58.950Z,76.20
2022-08-25T20:24:44.915Z,76.20
2022-08-25T20:27:12.520Z,76.40
2022-08-25T20:29:39.695Z,76.80
2022-08-25T20:32:12.493Z,76.60
2022-08-25T20:34:41.219Z,76.80
2022-08-25T20:37:08.871Z,77.10
2022-08-25T20:39:36.594Z,76.80
2022-08-25T20:42:04.564Z,76.50
2022-08-25T20:44:33.807Z,76.30
2022-08-25T20:47:03.516Z,76.30
2022-08-25T20:49:37.659Z,76.00
2022-08-25T20:52:05.966Z,76.00
2022-08-25T20:54:33.844Z,76.30
2022-08-25T20:57:01.147Z,76.00
2022-08-25T20:59:29.733Z,75.90
2022-08-25T21:01:57.006Z,76.00
2022-08-25T21:04:31.839Z,75.90
2022-08-25T21:07:02.904Z,75.50
2022-08-25T21:09:30.157Z,75.60
2022-08-25T21:11:59.217Z,75.30
2022-08-25T21:14:27.019Z,75.50
2022-08-25T21:16:56.110Z,75.50
2022-08-25T21:19:26.270Z,74.90
2022-08-25T21:21:54.435Z,75.80
2022-08-25T21:24:27.661Z,76.00
2022-08-25T21:26:57.363Z,76.30
2022-08-25T21:29:28.345Z,76.20
2022-08-25T21:31:58.655Z,76.50
2022-08-25T21:34:28.202Z,76.50
2022-08-25T21:36:58.186Z,76.40
2022-08-25T21:39:27.999Z,76.30
2022-08-25T21:41:58.592Z,76.40
2022-08-25T21:44:28.088Z,76.40
2022-08-25T21:46:55.519Z,76.40
2022-08-25T21:49:23.500Z,76.20
2022-08-25T21:51:59.830Z,76.20
2022-08-25T21:54:29.124Z,76.30
2022-08-25T21:56:59.611Z,76.20
2022-08-25T21:59:34.711Z,75.00
2022-08-25T22:02:05.368Z,75.80
2022-08-25T22:04:32.985Z,75.70
2022-08-25T22:07:01.223Z,75.80
2022-08-25T22:09:30.506Z,75.70
2022-08-25T22:11:58.708Z,75.70
2022-08-25T22:14:27.217Z,75.60
2022-08-25T22:16:55.118Z,75.80
2022-08-25T22:19:23.052Z,75.50
2022-08-25T22:21:51.229Z,75.70
2022-08-25T22:24:19.255Z,75.80
2022-08-25T22:26:47.699Z,75.60
2022-08-25T22:29:25.430Z,75.20
2022-08-25T22:31:58.654Z,75.10
2022-08-25T22:34:34.376Z,75.00
2022-08-25T22:37:03.800Z,75.10
2022-08-25T22:39:32.419Z,75.10
2022-08-25T22:42:05.286Z,75.30
2022-08-25T22:44:32.797Z,75.30
2022-08-25T22:47:00.141Z,75.40
2022-08-25T22:49:29.065Z,75.50
2022-08-25T22:51:56.291Z,75.50
2022-08-25T22:54:25.261Z,75.50
2022-08-25T22:56:53.384Z,75.40
2022-08-25T22:59:22.472Z,75.40
2022-08-25T23:01:52.243Z,75.30
2022-08-25T23:04:19.709Z,75.00
2022-08-25T23:06:47.433Z,74.90
2022-08-25T23:09:14.656Z,74.30
2022-08-25T23:11:42.994Z,75.00
2022-08-25T23:14:11.278Z,75.50
2022-08-25T23:16:41.930Z,75.60
2022-08-25T23:19:11.313Z,74.90
2022-08-25T23:22:01.320Z,75.60
2022-08-25T23:24:30.066Z,75.80
2022-08-25T23:26:59.334Z,75.80
2022-08-25T23:29:27.620Z,75.90
2022-08-25T23:31:56.174Z,76.00
2022-08-25T23:34:24.430Z,76.00
2022-08-25T23:36:52.375Z,76.10
2022-08-25T23:39:21.678Z,76.40
2022-08-25T23:41:50.435Z,76.20
2022-08-25T23:44:18.902Z,76.20
2022-08-25T23:46:47.803Z,76.20
2022-08-25T23:49:18.419Z,76.00
2022-08-25T23:51:49.257Z,76.10
2022-08-25T23:54:18.715Z,76.30
2022-08-25T23:56:51.559Z,76.40
2022-08-25T23:59:24.133Z,75.40
